sensor_id;sensor_type;location;lat;lon;timestamp;P1;durP1;ratioP1;P2;durP2;ratioP2
75508;SDS011;64214;47.250;11.332;2022-11-20T00:00:07;5.13;;;3.30;;
75508;SDS011;64214;47.250;11.332;2022-11-20T00:00:19;5.13;;;3.30;;
75508;SDS011;64214;47.250;11.332;2022-11-20T00:00:30;4.95;;;3.20;;
75508;SDS011;64214;47.250;11.332;2022-11-20T00:00:41;4.32;;;2.92;;
75508;SDS011;64214;47.250;11.332;2022-11-20T00:00:52;4.75;;;2.83;;
75508;SDS011;64214;47.250;11.332;2022-11-20T00:01:07;4.63;;;2.88;;
75508;SDS011;64214;47.250;11.332;2022-11-20T00:01:20;4.43;;;2.97;;
75508;SDS011;64214;47.250;11.332;2022-11-20T00:01:33;4.53;;;2.95;;
75508;SDS011;64214;47.250;11.332;2022-11-20T00:01:44;4.63;;;3.00;;
75508;SDS011;64214;47.250;11.332;2022-11-20T00:01:55;4.85;;;3.03;;
75508;SDS011;64214;47.250;11.332;2022-11-20T00:02:06;4.75;;;2.97;;
75508;SDS011;64214;47.250;11.332;2022-11-20T00:02:17;4.70;;;2.88;;
75508;SDS011;64214;47.250;11.332;2022-11-20T00:02:29;4.25;;;2.70;;
75508;SDS011;64214;47.250;11.332;2022-11-20T00:02:40;5.18;;;2.85;;
75508;SDS011;64214;47.250;11.332;2022-11-20T00:02:51;5.03;;;3.10;;
75508;SDS011;64214;47.250;11.332;2022-11-20T00:03:02;4.55;;;3.10;;
75508;SDS011;64214;47.250;11.332;2022-11-20T00:03:13;3.65;;;2.90;;
75508;SDS011;64214;47.250;11.332;2022-11-20T00:03:24;4.40;;;2.97;;
75508;SDS011;64214;47.250;11.332;2022-11-20T00:03:35;4.47;;;3.00;;
75508;SDS011;64214;47.250;11.332;2022-11-20T00:03:46;4.60;;;3.03;;
75508;SDS011;64214;47.250;11.332;2022-11-20T00:03:58;4.15;;;2.90;;
75508;SDS011;64214;47.250;11.332;2022-11-20T00:04:10;4.07;;;2.80;;
75508;SDS011;64214;47.250;11.332;2022-11-20T00:04:22;3.58;;;2.55;;
75508;SDS011;64214;47.250;11.332;2022-11-20T00:04:33;3.38;;;2.60;;
75508;SDS011;64214;47.250;11.332;2022-11-20T00:04:44;3.35;;;2.60;;
75508;SDS011;64214;47.250;11.332;2022-11-20T00:04:55;3.83;;;2.95;;
75508;SDS011;64214;47.250;11.332;2022-11-20T00:05:09;4.15;;;3.00;;
75508;SDS011;64214;47.250;11.332;2022-11-20T00:05:20;4.30;;;2.72;;
75508;SDS011;64214;47.250;11.332;2022-11-20T00:05:32;4.15;;;2.63;;
75508;SDS011;64214;47.250;11.332;2022-11-20T00:05:43;3.58;;;2.40;;
75508;SDS011;64214;47.250;11.332;2022-11-20T00:06:04;3.40;;;2.50;;
75508;SDS011;64214;47.250;11.332;2022-11-20T00:06:19;3.25;;;2.17;;
75508;SDS011;64214;47.250;11.332;2022-11-20T00:06:31;3.38;;;2.50;;
75508;SDS011;64214;47.250;11.332;2022-11-20T00:06:42;3.25;;;2.60;;
75508;SDS011;64214;47.250;11.332;2022-11-20T00:06:53;3.28;;;2.50;;
75508;SDS011;64214;47.250;11.332;2022-11-20T00:07:04;3.65;;;2.25;;
75508;SDS011;64214;47.250;11.332;2022-11-20T00:07:15;3.75;;;2.30;;
75508;SDS011;64214;47.250;11.332;2022-11-20T00:07:26;3.00;;;2.20;;
75508;SDS011;64214;47.250;11.332;2022-11-20T00:07:37;2.92;;;2.13;;
75508;SDS011;64214;47.250;11.332;2022-11-20T00:07:48;3.00;;;2.05;;
75508;SDS011;64214;47.250;11.332;2022-11-20T00:07:59;2.83;;;1.90;;
75508;SDS011;64214;47.250;11.332;2022-11-20T00:08:11;2.80;;;1.90;;
75508;SDS011;64214;47.250;11.332;2022-11-20T00:08:22;2.63;;;1.90;;
75508;SDS011;64214;47.250;11.332;2022-11-20T00:08:33;2.95;;;2.00;;
75508;SDS011;64214;47.250;11.332;2022-11-20T00:08:44;3.53;;;2.30;;
75508;SDS011;64214;47.250;11.332;2022-11-20T00:08:57;3.60;;;2.58;;
75508;SDS011;64214;47.250;11.332;2022-11-20T00:09:09;3.45;;;2.40;;
75508;SDS011;64214;47.250;11.332;2022-11-20T00:09:20;3.47;;;2.42;;
75508;SDS011;64214;47.250;11.332;2022-11-20T00:09:33;3.70;;;2.50;;
75508;SDS011;64214;47.250;11.332;2022-11-20T00:09:44;3.58;;;2.60;;
75508;SDS011;64214;47.250;11.332;2022-11-20T00:09:55;3.40;;;2.70;;
75508;SDS011;64214;47.250;11.332;2022-11-20T00:10:06;3.53;;;2.50;;
75508;SDS011;64214;47.250;11.332;2022-11-20T00:10:18;4.05;;;2.58;;
75508;SDS011;64214;47.250;11.332;2022-11-20T00:10:29;3.78;;;2.50;;
75508;SDS011;64214;47.250;11.332;2022-11-20T00:10:40;3.67;;;2.50;;
75508;SDS011;64214;47.250;11.332;2022-11-20T00:10:51;2.83;;;2.15;;
75508;SDS011;64214;47.250;11.332;2022-11-20T00:11:03;2.67;;;2.17;;
75508;SDS011;64214;47.250;11.332;2022-11-20T00:11:16;3.30;;;2.20;;
75508;SDS011;64214;47.250;11.332;2022-11-20T00:11:31;3.87;;;2.40;;
75508;SDS011;64214;47.250;11.332;2022-11-20T00:11:43;3.60;;;3.03;;
75508;SDS011;64214;47.250;11.332;2022-11-20T00:11:54;3.65;;;3.10;;
75508;SDS011;64214;47.250;11.332;2022-11-20T00:12:05;4.25;;;3.40;;
75508;SDS011;64214;47.250;11.332;2022-11-20T00:12:16;4.15;;;3.13;;
75508;SDS011;64214;47.250;11.332;2022-11-20T00:12:28;3.92;;;3.30;;
75508;SDS011;64214;47.250;11.332;2022-11-20T00:12:39;3.80;;;3.40;;
75508;SDS011;64214;47.250;11.332;2022-11-20T00:12:50;3.90;;;3.30;;
75508;SDS011;64214;47.250;11.332;2022-11-20T00:13:01;3.90;;;3.38;;
75508;SDS011;64214;47.250;11.332;2022-11-20T00:13:12;4.13;;;3.03;;
75508;SDS011;64214;47.250;11.332;2022-11-20T00:13:23;4.47;;;2.85;;
75508;SDS011;64214;47.250;11.332;2022-11-20T00:13:34;4.43;;;2.85;;
75508;SDS011;64214;47.250;11.332;2022-11-20T00:13:46;3.70;;;2.78;;
75508;SDS011;64214;47.250;11.332;2022-11-20T00:13:59;3.33;;;2.70;;
75508;SDS011;64214;47.250;11.332;2022-11-20T00:14:11;3.50;;;2.70;;
75508;SDS011;64214;47.250;11.332;2022-11-20T00:14:22;3.47;;;2.58;;
75508;SDS011;64214;47.250;11.332;2022-11-20T00:14:34;3.30;;;2.38;;
75508;SDS011;64214;47.250;11.332;2022-11-20T00:14:45;3.00;;;2.30;;
75508;SDS011;64214;47.250;11.332;2022-11-20T00:14:56;3.03;;;2.28;;
75508;SDS011;64214;47.250;11.332;2022-11-20T00:15:07;3.17;;;2.20;;
75508;SDS011;64214;47.250;11.332;2022-11-20T00:15:18;3.65;;;2.20;;
75508;SDS011;64214;47.250;11.332;2022-11-20T00:15:30;3.55;;;2.13;;
75508;SDS011;64214;47.250;11.332;2022-11-20T00:15:41;3.42;;;2.13;;
75508;SDS011;64214;47.250;11.332;2022-11-20T00:15:56;3.50;;;2.10;;
75508;SDS011;64214;47.250;11.332;2022-11-20T00:16:08;3.28;;;2.10;;
75508;SDS011;64214;47.250;11.332;2022-11-20T00:16:22;2.88;;;2.20;;
75508;SDS011;64214;47.250;11.332;2022-11-20T00:16:35;3.00;;;2.13;;
75508;SDS011;64214;47.250;11.332;2022-11-20T00:16:48;2.90;;;2.00;;
75508;SDS011;64214;47.250;11.332;2022-11-20T00:16:59;2.80;;;2.05;;
75508;SDS011;64214;47.250;11.332;2022-11-20T00:17:10;2.80;;;1.90;;
75508;SDS011;64214;47.250;11.332;2022-11-20T00:17:21;2.88;;;1.90;;
75508;SDS011;64214;47.250;11.332;2022-11-20T00:17:33;2.65;;;1.80;;
75508;SDS011;64214;47.250;11.332;2022-11-20T00:17:44;3.70;;;1.90;;
75508;SDS011;64214;47.250;11.332;2022-11-20T00:17:55;3.50;;;1.80;;
75508;SDS011;64214;47.250;11.332;2022-11-20T00:18:06;3.22;;;1.80;;
75508;SDS011;64214;47.250;11.332;2022-11-20T00:18:17;2.63;;;1.85;;
75508;SDS011;64214;47.250;11.332;2022-11-20T00:18:28;2.67;;;2.00;;
75508;SDS011;64214;47.250;11.332;2022-11-20T00:18:40;3.00;;;2.08;;
75508;SDS011;64214;47.250;11.332;2022-11-20T00:18:53;3.00;;;2.15;;
75508;SDS011;64214;47.250;11.332;2022-11-20T00:19:04;3.03;;;2.17;;
75508;SDS011;64214;47.250;11.332;2022-11-20T00:19:15;2.95;;;2.10;;
75508;SDS011;64214;47.250;11.332;2022-11-20T00:19:26;3.25;;;2.45;;
75508;SDS011;64214;47.250;11.332;2022-11-20T00:19:37;4.25;;;2.58;;
75508;SDS011;64214;47.250;11.332;2022-11-20T00:19:48;4.18;;;2.42;;
75508;SDS011;64214;47.250;11.332;2022-11-20T00:20:00;4.00;;;2.20;;
75508;SDS011;64214;47.250;11.332;2022-11-20T00:20:11;3.22;;;2.22;;
75508;SDS011;64214;47.250;11.332;2022-11-20T00:20:22;3.33;;;2.28;;
75508;SDS011;64214;47.250;11.332;2022-11-20T00:20:34;3.33;;;2.22;;
75508;SDS011;64214;47.250;11.332;2022-11-20T00:20:45;3.33;;;2.17;;
75508;SDS011;64214;47.250;11.332;2022-11-20T00:21:42;2.88;;;1.80;;
75508;SDS011;64214;47.250;11.332;2022-11-20T00:21:53;3.30;;;1.80;;
75508;SDS011;64214;47.250;11.332;2022-11-20T00:22:07;3.00;;;1.90;;
75508;SDS011;64214;47.250;11.332;2022-11-20T00:22:18;3.05;;;2.08;;
75508;SDS011;64214;47.250;11.332;2022-11-20T00:22:29;2.40;;;1.90;;
75508;SDS011;64214;47.250;11.332;2022-11-20T00:22:40;2.65;;;2.00;;
75508;SDS011;64214;47.250;11.332;2022-11-20T00:22:51;2.63;;;2.00;;
75508;SDS011;64214;47.250;11.332;2022-11-20T00:23:03;2.80;;;2.00;;
75508;SDS011;64214;47.250;11.332;2022-11-20T00:23:14;2.83;;;1.88;;
75508;SDS011;64214;47.250;11.332;2022-11-20T00:23:25;3.28;;;1.90;;
75508;SDS011;64214;47.250;11.332;2022-11-20T00:23:36;3.80;;;2.00;;
75508;SDS011;64214;47.250;11.332;2022-11-20T00:23:48;3.22;;;1.92;;
75508;SDS011;64214;47.250;11.332;2022-11-20T00:23:59;2.67;;;1.90;;
75508;SDS011;64214;47.250;11.332;2022-11-20T00:24:10;2.55;;;1.95;;
75508;SDS011;64214;47.250;11.332;2022-11-20T00:24:22;2.85;;;2.17;;
75508;SDS011;64214;47.250;11.332;2022-11-20T00:24:33;2.97;;;2.20;;
75508;SDS011;64214;47.250;11.332;2022-11-20T00:24:44;2.78;;;1.92;;
75508;SDS011;64214;47.250;11.332;2022-11-20T00:24:55;3.40;;;1.80;;
75508;SDS011;64214;47.250;11.332;2022-11-20T00:25:08;3.60;;;1.70;;
75508;SDS011;64214;47.250;11.332;2022-11-20T00:25:19;3.22;;;1.80;;
75508;SDS011;64214;47.250;11.332;2022-11-20T00:25:30;2.55;;;1.73;;
75508;SDS011;64214;47.250;11.332;2022-11-20T00:25:41;2.45;;;1.75;;
75508;SDS011;64214;47.250;11.332;2022-11-20T00:25:52;2.08;;;1.85;;
75508;SDS011;64214;47.250;11.332;2022-11-20T00:26:04;1.98;;;1.77;;
75508;SDS011;64214;47.250;11.332;2022-11-20T00:26:18;1.92;;;1.70;;
75508;SDS011;64214;47.250;11.332;2022-11-20T00:26:30;2.20;;;1.67;;
75508;SDS011;64214;47.250;11.332;2022-11-20T00:26:41;2.65;;;1.77;;
75508;SDS011;64214;47.250;11.332;2022-11-20T00:26:52;2.33;;;1.80;;
75508;SDS011;64214;47.250;11.332;2022-11-20T00:27:04;2.13;;;1.80;;
75508;SDS011;64214;47.250;11.332;2022-11-20T00:27:15;1.75;;;1.58;;
75508;SDS011;64214;47.250;11.332;2022-11-20T00:27:26;1.85;;;1.60;;
75508;SDS011;64214;47.250;11.332;2022-11-20T00:27:37;2.63;;;1.60;;
75508;SDS011;64214;47.250;11.332;2022-11-20T00:27:48;2.83;;;1.60;;
75508;SDS011;64214;47.250;11.332;2022-11-20T00:27:59;2.95;;;1.75;;
75508;SDS011;64214;47.250;11.332;2022-11-20T00:28:11;2.05;;;1.70;;
75508;SDS011;64214;47.250;11.332;2022-11-20T00:28:22;2.60;;;1.50;;
75508;SDS011;64214;47.250;11.332;2022-11-20T00:28:33;2.65;;;1.40;;
75508;SDS011;64214;47.250;11.332;2022-11-20T00:28:49;2.88;;;1.50;;
75508;SDS011;64214;47.250;11.332;2022-11-20T00:29:01;2.47;;;1.60;;
75508;SDS011;64214;47.250;11.332;2022-11-20T00:29:12;2.38;;;1.65;;
75508;SDS011;64214;47.250;11.332;2022-11-20T00:29:23;2.22;;;1.60;;
75508;SDS011;64214;47.250;11.332;2022-11-20T00:29:35;2.22;;;1.58;;
75508;SDS011;64214;47.250;11.332;2022-11-20T00:29:46;2.28;;;1.50;;
75508;SDS011;64214;47.250;11.332;2022-11-20T00:29:57;2.50;;;1.60;;
75508;SDS011;64214;47.250;11.332;2022-11-20T00:30:08;2.35;;;1.70;;
75508;SDS011;64214;47.250;11.332;2022-11-20T00:30:19;2.60;;;1.70;;
75508;SDS011;64214;47.250;11.332;2022-11-20T00:30:30;3.10;;;1.73;;
75508;SDS011;64214;47.250;11.332;2022-11-20T00:30:41;3.35;;;1.83;;
75508;SDS011;64214;47.250;11.332;2022-11-20T00:30:54;3.13;;;1.90;;
75508;SDS011;64214;47.250;11.332;2022-11-20T00:31:30;3.20;;;2.15;;
75508;SDS011;64214;47.250;11.332;2022-11-20T00:31:43;2.83;;;2.08;;
75508;SDS011;64214;47.250;11.332;2022-11-20T00:31:54;2.58;;;2.03;;
75508;SDS011;64214;47.250;11.332;2022-11-20T00:32:05;2.50;;;2.00;;
75508;SDS011;64214;47.250;11.332;2022-11-20T00:32:16;2.50;;;1.88;;
75508;SDS011;64214;47.250;11.332;2022-11-20T00:32:27;2.80;;;1.85;;
75508;SDS011;64214;47.250;11.332;2022-11-20T00:32:38;2.78;;;1.73;;
75508;SDS011;64214;47.250;11.332;2022-11-20T00:32:49;3.20;;;1.90;;
75508;SDS011;64214;47.250;11.332;2022-11-20T00:33:01;3.17;;;2.10;;
75508;SDS011;64214;47.250;11.332;2022-11-20T00:33:12;2.93;;;2.10;;
75508;SDS011;64214;47.250;11.332;2022-11-20T00:33:23;2.87;;;2.07;;
75508;SDS011;64214;47.250;11.332;2022-11-20T00:33:34;2.60;;;1.88;;
75508;SDS011;64214;47.250;11.332;2022-11-20T00:33:45;2.72;;;1.85;;
75508;SDS011;64214;47.250;11.332;2022-11-20T00:33:56;2.83;;;2.03;;
75508;SDS011;64214;47.250;11.332;2022-11-20T00:34:08;3.15;;;2.20;;
75508;SDS011;64214;47.250;11.332;2022-11-20T00:34:20;2.92;;;2.20;;
75508;SDS011;64214;47.250;11.332;2022-11-20T00:34:31;2.70;;;2.20;;
75508;SDS011;64214;47.250;11.332;2022-11-20T00:34:42;2.80;;;2.00;;
75508;SDS011;64214;47.250;11.332;2022-11-20T00:34:53;3.00;;;2.00;;
75508;SDS011;64214;47.250;11.332;2022-11-20T00:35:04;3.00;;;2.00;;
75508;SDS011;64214;47.250;11.332;2022-11-20T00:35:16;2.90;;;2.08;;
75508;SDS011;64214;47.250;11.332;2022-11-20T00:35:27;3.55;;;2.17;;
75508;SDS011;64214;47.250;11.332;2022-11-20T00:35:38;3.80;;;2.33;;
75508;SDS011;64214;47.250;11.332;2022-11-20T00:35:49;3.30;;;2.20;;
75508;SDS011;64214;47.250;11.332;2022-11-20T00:36:01;2.97;;;2.15;;
75508;SDS011;64214;47.250;11.332;2022-11-20T00:36:16;2.50;;;1.90;;
75508;SDS011;64214;47.250;11.332;2022-11-20T00:36:31;2.58;;;1.85;;
75508;SDS011;64214;47.250;11.332;2022-11-20T00:36:43;2.78;;;2.00;;
75508;SDS011;64214;47.250;11.332;2022-11-20T00:36:54;2.83;;;2.10;;
75508;SDS011;64214;47.250;11.332;2022-11-20T00:37:05;2.80;;;1.90;;
75508;SDS011;64214;47.250;11.332;2022-11-20T00:37:16;2.88;;;1.73;;
75508;SDS011;64214;47.250;11.332;2022-11-20T00:37:27;2.83;;;1.70;;
75508;SDS011;64214;47.250;11.332;2022-11-20T00:37:38;2.63;;;1.65;;
75508;SDS011;64214;47.250;11.332;2022-11-20T00:37:50;2.58;;;1.88;;
75508;SDS011;64214;47.250;11.332;2022-11-20T00:38:01;2.97;;;2.00;;
75508;SDS011;64214;47.250;11.332;2022-11-20T00:38:12;3.00;;;2.13;;
75508;SDS011;64214;47.250;11.332;2022-11-20T00:38:23;2.90;;;2.00;;
75508;SDS011;64214;47.250;11.332;2022-11-20T00:38:34;2.30;;;1.85;;
75508;SDS011;64214;47.250;11.332;2022-11-20T00:38:45;2.25;;;1.77;;
75508;SDS011;64214;47.250;11.332;2022-11-20T00:38:57;2.65;;;1.80;;
75508;SDS011;64214;47.250;11.332;2022-11-20T00:39:09;2.78;;;1.70;;
75508;SDS011;64214;47.250;11.332;2022-11-20T00:39:20;2.80;;;1.98;;
75508;SDS011;64214;47.250;11.332;2022-11-20T00:39:31;3.03;;;1.95;;
75508;SDS011;64214;47.250;11.332;2022-11-20T00:39:42;3.00;;;1.98;;
75508;SDS011;64214;47.250;11.332;2022-11-20T00:39:53;2.92;;;1.90;;
75508;SDS011;64214;47.250;11.332;2022-11-20T00:40:04;2.85;;;2.17;;
75508;SDS011;64214;47.250;11.332;2022-11-20T00:40:16;2.83;;;2.10;;
75508;SDS011;64214;47.250;11.332;2022-11-20T00:40:27;2.67;;;2.10;;
75508;SDS011;64214;47.250;11.332;2022-11-20T00:40:38;2.08;;;1.75;;
75508;SDS011;64214;47.250;11.332;2022-11-20T00:40:54;2.03;;;1.70;;
75508;SDS011;64214;47.250;11.332;2022-11-20T00:41:07;2.13;;;1.77;;
75508;SDS011;64214;47.250;11.332;2022-11-20T00:41:19;2.78;;;1.92;;
75508;SDS011;64214;47.250;11.332;2022-11-20T00:41:30;3.22;;;2.00;;
75508;SDS011;64214;47.250;11.332;2022-11-20T00:41:41;3.38;;;2.10;;
75508;SDS011;64214;47.250;11.332;2022-11-20T00:41:52;2.67;;;1.92;;
75508;SDS011;64214;47.250;11.332;2022-11-20T00:42:04;2.40;;;2.00;;
75508;SDS011;64214;47.250;11.332;2022-11-20T00:42:15;2.40;;;1.90;;
75508;SDS011;64214;47.250;11.332;2022-11-20T00:42:26;2.92;;;2.05;;
75508;SDS011;64214;47.250;11.332;2022-11-20T00:42:37;2.80;;;2.00;;
75508;SDS011;64214;47.250;11.332;2022-11-20T00:42:48;3.10;;;2.03;;
75508;SDS011;64214;47.250;11.332;2022-11-20T00:42:59;3.40;;;1.92;;
75508;SDS011;64214;47.250;11.332;2022-11-20T00:43:10;3.15;;;2.00;;
75508;SDS011;64214;47.250;11.332;2022-11-20T00:43:21;2.78;;;1.98;;
75508;SDS011;64214;47.250;11.332;2022-11-20T00:43:32;2.05;;;1.85;;
75508;SDS011;64214;47.250;11.332;2022-11-20T00:43:43;2.20;;;1.70;;
75508;SDS011;64214;47.250;11.332;2022-11-20T00:43:55;2.88;;;1.80;;
75508;SDS011;64214;47.250;11.332;2022-11-20T00:44:06;3.10;;;2.00;;
75508;SDS011;64214;47.250;11.332;2022-11-20T00:44:17;2.95;;;2.00;;
75508;SDS011;64214;47.250;11.332;2022-11-20T00:44:28;2.83;;;1.90;;
75508;SDS011;64214;47.250;11.332;2022-11-20T00:44:39;3.15;;;1.92;;
75508;SDS011;64214;47.250;11.332;2022-11-20T00:44:50;3.17;;;1.92;;
75508;SDS011;64214;47.250;11.332;2022-11-20T00:45:01;2.72;;;1.90;;
75508;SDS011;64214;47.250;11.332;2022-11-20T00:45:12;2.42;;;1.83;;
75508;SDS011;64214;47.250;11.332;2022-11-20T00:45:24;2.20;;;1.80;;
75508;SDS011;64214;47.250;11.332;2022-11-20T00:45:35;2.47;;;2.00;;
75508;SDS011;64214;47.250;11.332;2022-11-20T00:45:46;2.72;;;2.15;;
75508;SDS011;64214;47.250;11.332;2022-11-20T00:46:00;2.85;;;2.10;;
75508;SDS011;64214;47.250;11.332;2022-11-20T00:46:14;2.70;;;2.08;;
75508;SDS011;64214;47.250;11.332;2022-11-20T00:46:29;3.20;;;2.00;;
75508;SDS011;64214;47.250;11.332;2022-11-20T00:46:40;3.03;;;1.98;;
75508;SDS011;64214;47.250;11.332;2022-11-20T00:46:51;3.70;;;1.88;;
75508;SDS011;64214;47.250;11.332;2022-11-20T00:47:02;3.10;;;1.80;;
75508;SDS011;64214;47.250;11.332;2022-11-20T00:47:13;2.55;;;1.63;;
75508;SDS011;64214;47.250;11.332;2022-11-20T00:47:25;2.25;;;1.63;;
75508;SDS011;64214;47.250;11.332;2022-11-20T00:47:36;2.35;;;1.83;;
75508;SDS011;64214;47.250;11.332;2022-11-20T00:47:47;2.60;;;2.08;;
75508;SDS011;64214;47.250;11.332;2022-11-20T00:47:58;2.53;;;2.03;;
75508;SDS011;64214;47.250;11.332;2022-11-20T00:48:09;2.60;;;1.85;;
75508;SDS011;64214;47.250;11.332;2022-11-20T00:48:20;2.55;;;1.83;;
75508;SDS011;64214;47.250;11.332;2022-11-20T00:48:31;2.60;;;2.00;;
75508;SDS011;64214;47.250;11.332;2022-11-20T00:48:43;2.67;;;2.03;;
75508;SDS011;64214;47.250;11.332;2022-11-20T00:48:54;2.75;;;1.98;;
75508;SDS011;64214;47.250;11.332;2022-11-20T00:49:05;2.67;;;1.80;;
75508;SDS011;64214;47.250;11.332;2022-11-20T00:49:16;2.75;;;1.80;;
75508;SDS011;64214;47.250;11.332;2022-11-20T00:49:27;2.55;;;1.80;;
75508;SDS011;64214;47.250;11.332;2022-11-20T00:49:38;2.42;;;1.73;;
75508;SDS011;64214;47.250;11.332;2022-11-20T00:49:50;2.55;;;1.70;;
75508;SDS011;64214;47.250;11.332;2022-11-20T00:50:01;2.20;;;1.73;;
75508;SDS011;64214;47.250;11.332;2022-11-20T00:50:13;2.55;;;1.80;;
75508;SDS011;64214;47.250;11.332;2022-11-20T00:50:24;2.40;;;1.70;;
75508;SDS011;64214;47.250;11.332;2022-11-20T00:50:35;2.70;;;1.80;;
75508;SDS011;64214;47.250;11.332;2022-11-20T00:50:46;2.28;;;1.80;;
75508;SDS011;64214;47.250;11.332;2022-11-20T00:50:57;2.63;;;1.73;;
75508;SDS011;64214;47.250;11.332;2022-11-20T00:51:09;2.90;;;1.88;;
75508;SDS011;64214;47.250;11.332;2022-11-20T00:51:22;2.95;;;1.90;;
75508;SDS011;64214;47.250;11.332;2022-11-20T00:51:35;2.53;;;1.90;;
75508;SDS011;64214;47.250;11.332;2022-11-20T00:51:46;2.70;;;1.80;;
75508;SDS011;64214;47.250;11.332;2022-11-20T00:51:57;3.15;;;1.80;;
75508;SDS011;64214;47.250;11.332;2022-11-20T00:52:08;3.15;;;1.90;;
75508;SDS011;64214;47.250;11.332;2022-11-20T00:52:19;2.80;;;1.80;;
75508;SDS011;64214;47.250;11.332;2022-11-20T00:52:30;2.63;;;1.92;;
75508;SDS011;64214;47.250;11.332;2022-11-20T00:52:44;2.75;;;2.00;;
75508;SDS011;64214;47.250;11.332;2022-11-20T00:52:55;2.88;;;2.00;;
75508;SDS011;64214;47.250;11.332;2022-11-20T00:53:07;2.60;;;1.85;;
75508;SDS011;64214;47.250;11.332;2022-11-20T00:53:18;2.88;;;1.80;;
75508;SDS011;64214;47.250;11.332;2022-11-20T00:53:29;2.92;;;1.83;;
75508;SDS011;64214;47.250;11.332;2022-11-20T00:53:40;2.90;;;1.80;;
75508;SDS011;64214;47.250;11.332;2022-11-20T00:53:51;2.25;;;1.73;;
75508;SDS011;64214;47.250;11.332;2022-11-20T00:54:02;2.20;;;1.63;;
75508;SDS011;64214;47.250;11.332;2022-11-20T00:54:14;2.47;;;1.58;;
75508;SDS011;64214;47.250;11.332;2022-11-20T00:54:25;2.83;;;1.77;;
75508;SDS011;64214;47.250;11.332;2022-11-20T00:54:36;2.65;;;1.80;;
75508;SDS011;64214;47.250;11.332;2022-11-20T00:54:48;2.40;;;1.73;;
75508;SDS011;64214;47.250;11.332;2022-11-20T00:55:00;2.25;;;1.80;;
75508;SDS011;64214;47.250;11.332;2022-11-20T00:55:11;2.20;;;1.77;;
75508;SDS011;64214;47.250;11.332;2022-11-20T00:55:22;2.55;;;1.80;;
75508;SDS011;64214;47.250;11.332;2022-11-20T00:55:33;2.70;;;1.80;;
75508;SDS011;64214;47.250;11.332;2022-11-20T00:56:12;2.53;;;1.92;;
75508;SDS011;64214;47.250;11.332;2022-11-20T00:56:25;2.25;;;1.75;;
75508;SDS011;64214;47.250;11.332;2022-11-20T00:56:36;2.35;;;1.60;;
75508;SDS011;64214;47.250;11.332;2022-11-20T00:56:47;2.58;;;1.70;;
75508;SDS011;64214;47.250;11.332;2022-11-20T00:56:59;2.97;;;2.05;;
75508;SDS011;64214;47.250;11.332;2022-11-20T00:57:10;2.92;;;2.05;;
75508;SDS011;64214;47.250;11.332;2022-11-20T00:57:21;3.00;;;1.98;;
75508;SDS011;64214;47.250;11.332;2022-11-20T00:57:32;3.38;;;2.00;;
75508;SDS011;64214;47.250;11.332;2022-11-20T00:57:43;3.10;;;2.05;;
75508;SDS011;64214;47.250;11.332;2022-11-20T00:57:54;3.05;;;1.92;;
75508;SDS011;64214;47.250;11.332;2022-11-20T00:58:05;3.40;;;1.88;;
75508;SDS011;64214;47.250;11.332;2022-11-20T00:58:16;3.30;;;1.77;;
75508;SDS011;64214;47.250;11.332;2022-11-20T00:58:29;3.70;;;1.98;;
75508;SDS011;64214;47.250;11.332;2022-11-20T00:58:42;4.05;;;2.15;;
75508;SDS011;64214;47.250;11.332;2022-11-20T00:58:54;3.90;;;2.20;;
75508;SDS011;64214;47.250;11.332;2022-11-20T00:59:05;3.53;;;2.28;;
75508;SDS011;64214;47.250;11.332;2022-11-20T00:59:17;3.10;;;2.17;;
75508;SDS011;64214;47.250;11.332;2022-11-20T00:59:28;3.42;;;2.03;;
75508;SDS011;64214;47.250;11.332;2022-11-20T00:59:39;4.20;;;2.05;;
75508;SDS011;64214;47.250;11.332;2022-11-20T00:59:50;4.35;;;2.20;;
75508;SDS011;64214;47.250;11.332;2022-11-20T01:00:01;4.07;;;2.25;;
75508;SDS011;64214;47.250;11.332;2022-11-20T01:00:12;3.28;;;2.08;;
75508;SDS011;64214;47.250;11.332;2022-11-20T01:00:23;4.13;;;2.10;;
75508;SDS011;64214;47.250;11.332;2022-11-20T01:00:34;4.47;;;2.00;;
75508;SDS011;64214;47.250;11.332;2022-11-20T01:00:45;4.15;;;2.15;;
75508;SDS011;64214;47.250;11.332;2022-11-20T01:01:03;3.25;;;2.20;;
75508;SDS011;64214;47.250;11.332;2022-11-20T01:01:20;3.35;;;2.30;;
75508;SDS011;64214;47.250;11.332;2022-11-20T01:01:32;3.40;;;2.45;;
75508;SDS011;64214;47.250;11.332;2022-11-20T01:01:43;3.75;;;2.35;;
75508;SDS011;64214;47.250;11.332;2022-11-20T01:01:54;3.90;;;2.47;;
75508;SDS011;64214;47.250;11.332;2022-11-20T01:02:07;3.45;;;2.30;;
75508;SDS011;64214;47.250;11.332;2022-11-20T01:02:18;3.40;;;2.10;;
75508;SDS011;64214;47.250;11.332;2022-11-20T01:02:29;3.45;;;2.10;;
75508;SDS011;64214;47.250;11.332;2022-11-20T01:02:40;3.08;;;2.00;;
75508;SDS011;64214;47.250;11.332;2022-11-20T01:02:51;2.70;;;2.00;;
75508;SDS011;64214;47.250;11.332;2022-11-20T01:03:02;2.88;;;2.03;;
75508;SDS011;64214;47.250;11.332;2022-11-20T01:03:13;3.03;;;2.10;;
75508;SDS011;64214;47.250;11.332;2022-11-20T01:03:24;3.05;;;2.10;;
75508;SDS011;64214;47.250;11.332;2022-11-20T01:03:36;3.10;;;1.95;;
75508;SDS011;64214;47.250;11.332;2022-11-20T01:03:52;3.55;;;2.10;;
75508;SDS011;64214;47.250;11.332;2022-11-20T01:04:04;3.65;;;2.30;;
75508;SDS011;64214;47.250;11.332;2022-11-20T01:04:15;3.53;;;2.30;;
75508;SDS011;64214;47.250;11.332;2022-11-20T01:04:26;3.45;;;2.25;;
75508;SDS011;64214;47.250;11.332;2022-11-20T01:04:37;3.85;;;2.35;;
75508;SDS011;64214;47.250;11.332;2022-11-20T01:04:48;3.88;;;2.45;;
75508;SDS011;64214;47.250;11.332;2022-11-20T01:05:00;4.03;;;2.45;;
75508;SDS011;64214;47.250;11.332;2022-11-20T01:05:11;4.10;;;2.53;;
75508;SDS011;64214;47.250;11.332;2022-11-20T01:05:22;4.03;;;2.50;;
75508;SDS011;64214;47.250;11.332;2022-11-20T01:05:34;3.67;;;2.33;;
75508;SDS011;64214;47.250;11.332;2022-11-20T01:05:46;3.50;;;2.27;;
75508;SDS011;64214;47.250;11.332;2022-11-20T01:06:01;3.40;;;2.20;;
75508;SDS011;64214;47.250;11.332;2022-11-20T01:06:37;3.38;;;2.22;;
75508;SDS011;64214;47.250;11.332;2022-11-20T01:06:49;3.42;;;2.20;;
75508;SDS011;64214;47.250;11.332;2022-11-20T01:07:00;3.42;;;2.30;;
75508;SDS011;64214;47.250;11.332;2022-11-20T01:07:11;3.63;;;2.15;;
75508;SDS011;64214;47.250;11.332;2022-11-20T01:07:22;3.50;;;2.05;;
75508;SDS011;64214;47.250;11.332;2022-11-20T01:07:33;3.22;;;1.90;;
75508;SDS011;64214;47.250;11.332;2022-11-20T01:07:44;2.35;;;1.90;;
75508;SDS011;64214;47.250;11.332;2022-11-20T01:07:55;2.42;;;2.00;;
75508;SDS011;64214;47.250;11.332;2022-11-20T01:08:06;2.60;;;2.00;;
75508;SDS011;64214;47.250;11.332;2022-11-20T01:08:17;2.58;;;2.10;;
75508;SDS011;64214;47.250;11.332;2022-11-20T01:08:29;2.63;;;2.10;;
75508;SDS011;64214;47.250;11.332;2022-11-20T01:08:42;2.42;;;1.95;;
75508;SDS011;64214;47.250;11.332;2022-11-20T01:08:54;2.45;;;1.92;;
75508;SDS011;64214;47.250;11.332;2022-11-20T01:09:09;3.10;;;2.17;;
75508;SDS011;64214;47.250;11.332;2022-11-20T01:09:21;3.78;;;2.33;;
75508;SDS011;64214;47.250;11.332;2022-11-20T01:09:33;3.63;;;2.20;;
75508;SDS011;64214;47.250;11.332;2022-11-20T01:09:44;2.92;;;2.20;;
75508;SDS011;64214;47.250;11.332;2022-11-20T01:09:55;2.85;;;2.20;;
75508;SDS011;64214;47.250;11.332;2022-11-20T01:10:06;2.80;;;2.17;;
75508;SDS011;64214;47.250;11.332;2022-11-20T01:10:17;2.63;;;2.00;;
75508;SDS011;64214;47.250;11.332;2022-11-20T01:10:28;3.00;;;2.03;;
75508;SDS011;64214;47.250;11.332;2022-11-20T01:10:39;3.47;;;2.13;;